sensor_id;sensor_type;location;lat;lon;timestamp;P1;durP1;ratioP1;P2;durP2;ratioP2
73816;SDS011;62146;53.232;-1.304;2023-02-17T00:01:23;3.78;;;1.40;;
73816;SDS011;62146;53.232;-1.304;2023-02-17T00:03:53;2.75;;;1.13;;
73816;SDS011;62146;53.232;-1.304;2023-02-17T00:06:21;3.22;;;1.20;;
73816;SDS011;62146;53.232;-1.304;2023-02-17T00:08:49;3.93;;;1.40;;
73816;SDS011;62146;53.232;-1.304;2023-02-17T00:11:16;2.88;;;1.10;;
73816;SDS011;62146;53.232;-1.304;2023-02-17T00:13:43;3.28;;;1.30;;
73816;SDS011;62146;53.232;-1.304;2023-02-17T00:16:19;3.28;;;1.38;;
73816;SDS011;62146;53.232;-1.304;2023-02-17T00:18:51;3.10;;;1.30;;
73816;SDS011;62146;53.232;-1.304;2023-02-17T00:21:21;2.50;;;1.00;;
73816;SDS011;62146;53.232;-1.304;2023-02-17T00:23:49;2.97;;;1.33;;
73816;SDS011;62146;53.232;-1.304;2023-02-17T00:26:17;2.65;;;1.20;;
73816;SDS011;62146;53.232;-1.304;2023-02-17T00:28:45;4.07;;;1.80;;
73816;SDS011;62146;53.232;-1.304;2023-02-17T00:31:13;3.30;;;1.30;;
73816;SDS011;62146;53.232;-1.304;2023-02-17T00:33:42;3.30;;;1.27;;
73816;SDS011;62146;53.232;-1.304;2023-02-17T00:36:13;4.65;;;1.73;;
73816;SDS011;62146;53.232;-1.304;2023-02-17T00:38:43;3.63;;;1.50;;
73816;SDS011;62146;53.232;-1.304;2023-02-17T00:41:09;4.28;;;1.30;;
73816;SDS011;62146;53.232;-1.304;2023-02-17T00:43:36;3.08;;;1.27;;
73816;SDS011;62146;53.232;-1.304;2023-02-17T00:46:03;3.00;;;1.40;;
73816;SDS011;62146;53.232;-1.304;2023-02-17T00:48:30;3.65;;;1.20;;
73816;SDS011;62146;53.232;-1.304;2023-02-17T00:50:57;3.30;;;1.30;;
73816;SDS011;62146;53.232;-1.304;2023-02-17T00:53:24;5.80;;;1.40;;
73816;SDS011;62146;53.232;-1.304;2023-02-17T00:55:50;2.95;;;1.30;;
73816;SDS011;62146;53.232;-1.304;2023-02-17T00:58:17;3.00;;;1.23;;
73816;SDS011;62146;53.232;-1.304;2023-02-17T01:00:44;4.35;;;1.38;;
73816;SDS011;62146;53.232;-1.304;2023-02-17T01:03:10;3.13;;;1.50;;
73816;SDS011;62146;53.232;-1.304;2023-02-17T01:05:42;4.05;;;1.35;;
73816;SDS011;62146;53.232;-1.304;2023-02-17T01:08:10;3.10;;;1.20;;
73816;SDS011;62146;53.232;-1.304;2023-02-17T01:10:37;3.20;;;1.23;;
73816;SDS011;62146;53.232;-1.304;2023-02-17T01:13:05;3.13;;;1.33;;
73816;SDS011;62146;53.232;-1.304;2023-02-17T01:15:36;3.50;;;1.30;;
73816;SDS011;62146;53.232;-1.304;2023-02-17T01:18:04;3.65;;;1.50;;
73816;SDS011;62146;53.232;-1.304;2023-02-17T01:20:33;3.85;;;1.40;;
73816;SDS011;62146;53.232;-1.304;2023-02-17T01:23:00;3.33;;;1.30;;
73816;SDS011;62146;53.232;-1.304;2023-02-17T01:25:27;2.83;;;1.20;;
73816;SDS011;62146;53.232;-1.304;2023-02-17T01:27:54;3.08;;;1.30;;
73816;SDS011;62146;53.232;-1.304;2023-02-17T01:30:20;3.85;;;1.27;;
73816;SDS011;62146;53.232;-1.304;2023-02-17T01:32:47;2.88;;;1.30;;
73816;SDS011;62146;53.232;-1.304;2023-02-17T01:35:14;4.57;;;1.20;;
73816;SDS011;62146;53.232;-1.304;2023-02-17T01:37:40;4.15;;;1.35;;
73816;SDS011;62146;53.232;-1.304;2023-02-17T01:40:07;3.20;;;1.40;;
73816;SDS011;62146;53.232;-1.304;2023-02-17T01:42:34;2.78;;;1.02;;
73816;SDS011;62146;53.232;-1.304;2023-02-17T01:47:50;3.10;;;1.20;;
73816;SDS011;62146;53.232;-1.304;2023-02-17T01:50:21;3.63;;;1.20;;
73816;SDS011;62146;53.232;-1.304;2023-02-17T01:52:58;3.08;;;1.40;;
73816;SDS011;62146;53.232;-1.304;2023-02-17T01:55:26;3.17;;;1.20;;
73816;SDS011;62146;53.232;-1.304;2023-02-17T01:57:54;2.72;;;1.17;;
73816;SDS011;62146;53.232;-1.304;2023-02-17T02:00:24;3.43;;;1.37;;
73816;SDS011;62146;53.232;-1.304;2023-02-17T02:02:53;2.92;;;1.13;;
73816;SDS011;62146;53.232;-1.304;2023-02-17T02:05:21;3.60;;;1.30;;
73816;SDS011;62146;53.232;-1.304;2023-02-17T02:07:48;3.00;;;1.20;;
73816;SDS011;62146;53.232;-1.304;2023-02-17T02:10:17;3.30;;;1.30;;
73816;SDS011;62146;53.232;-1.304;2023-02-17T02:12:45;3.80;;;1.10;;
73816;SDS011;62146;53.232;-1.304;2023-02-17T02:15:14;2.70;;;1.02;;
73816;SDS011;62146;53.232;-1.304;2023-02-17T02:34:14;2.13;;;0.98;;
73816;SDS011;62146;53.232;-1.304;2023-02-17T02:36:48;2.80;;;1.00;;
73816;SDS011;62146;53.232;-1.304;2023-02-17T02:39:19;3.67;;;1.20;;
73816;SDS011;62146;53.232;-1.304;2023-02-17T02:41:47;4.03;;;1.30;;
73816;SDS011;62146;53.232;-1.304;2023-02-17T02:44:19;3.35;;;1.30;;
73816;SDS011;62146;53.232;-1.304;2023-02-17T02:46:59;5.43;;;1.25;;
73816;SDS011;62146;53.232;-1.304;2023-02-17T02:49:27;3.17;;;1.20;;
73816;SDS011;62146;53.232;-1.304;2023-02-17T03:07:55;3.30;;;1.20;;
73816;SDS011;62146;53.232;-1.304;2023-02-17T03:10:27;3.17;;;1.10;;
73816;SDS011;62146;53.232;-1.304;2023-02-17T03:12:53;4.03;;;1.10;;
73816;SDS011;62146;53.232;-1.304;2023-02-17T03:15:31;2.65;;;1.13;;
73816;SDS011;62146;53.232;-1.304;2023-02-17T03:18:00;3.20;;;1.00;;
73816;SDS011;62146;53.232;-1.304;2023-02-17T03:20:29;3.40;;;1.02;;
73816;SDS011;62146;53.232;-1.304;2023-02-17T03:22:59;2.78;;;1.00;;
73816;SDS011;62146;53.232;-1.304;2023-02-17T03:25:26;3.30;;;1.00;;
73816;SDS011;62146;53.232;-1.304;2023-02-17T03:27:52;3.10;;;1.00;;
73816;SDS011;62146;53.232;-1.304;2023-02-17T03:30:19;3.17;;;1.03;;
73816;SDS011;62146;53.232;-1.304;2023-02-17T03:32:46;3.05;;;1.00;;
73816;SDS011;62146;53.232;-1.304;2023-02-17T03:35:13;2.10;;;0.82;;
73816;SDS011;62146;53.232;-1.304;2023-02-17T03:37:40;2.58;;;0.98;;
73816;SDS011;62146;53.232;-1.304;2023-02-17T03:40:07;3.20;;;0.90;;
73816;SDS011;62146;53.232;-1.304;2023-02-17T03:42:34;3.07;;;0.87;;
73816;SDS011;62146;53.232;-1.304;2023-02-17T03:45:01;3.80;;;0.82;;
73816;SDS011;62146;53.232;-1.304;2023-02-17T03:47:28;3.00;;;0.90;;
73816;SDS011;62146;53.232;-1.304;2023-02-17T03:49:55;3.83;;;0.90;;
73816;SDS011;62146;53.232;-1.304;2023-02-17T03:52:22;5.47;;;1.02;;
73816;SDS011;62146;53.232;-1.304;2023-02-17T03:54:48;2.33;;;0.73;;
73816;SDS011;62146;53.232;-1.304;2023-02-17T03:57:15;3.35;;;0.85;;
73816;SDS011;62146;53.232;-1.304;2023-02-17T03:59:41;2.67;;;1.00;;
73816;SDS011;62146;53.232;-1.304;2023-02-17T04:02:08;4.47;;;1.48;;
73816;SDS011;62146;53.232;-1.304;2023-02-17T04:04:34;3.38;;;1.00;;
73816;SDS011;62146;53.232;-1.304;2023-02-17T04:07:01;3.17;;;0.80;;
73816;SDS011;62146;53.232;-1.304;2023-02-17T04:09:28;2.25;;;0.70;;
73816;SDS011;62146;53.232;-1.304;2023-02-17T04:11:55;3.70;;;0.80;;
73816;SDS011;62146;53.232;-1.304;2023-02-17T04:14:21;2.53;;;0.90;;
73816;SDS011;62146;53.232;-1.304;2023-02-17T04:16:48;3.70;;;0.80;;
73816;SDS011;62146;53.232;-1.304;2023-02-17T04:19:14;3.87;;;0.87;;
73816;SDS011;62146;53.232;-1.304;2023-02-17T04:21:41;4.40;;;1.10;;
73816;SDS011;62146;53.232;-1.304;2023-02-17T04:24:08;4.88;;;1.00;;
73816;SDS011;62146;53.232;-1.304;2023-02-17T04:26:34;6.28;;;1.20;;
73816;SDS011;62146;53.232;-1.304;2023-02-17T04:29:02;3.20;;;1.00;;
73816;SDS011;62146;53.232;-1.304;2023-02-17T04:31:30;4.43;;;1.30;;
73816;SDS011;62146;53.232;-1.304;2023-02-17T04:33:57;3.35;;;0.98;;
73816;SDS011;62146;53.232;-1.304;2023-02-17T04:36:23;4.15;;;1.23;;
73816;SDS011;62146;53.232;-1.304;2023-02-17T04:38:50;3.75;;;0.90;;
73816;SDS011;62146;53.232;-1.304;2023-02-17T04:41:16;3.67;;;0.90;;
73816;SDS011;62146;53.232;-1.304;2023-02-17T04:43:43;3.40;;;1.00;;
73816;SDS011;62146;53.232;-1.304;2023-02-17T04:46:10;5.72;;;1.30;;
73816;SDS011;62146;53.232;-1.304;2023-02-17T04:48:37;5.75;;;1.15;;
73816;SDS011;62146;53.232;-1.304;2023-02-17T04:51:04;4.65;;;1.10;;
73816;SDS011;62146;53.232;-1.304;2023-02-17T04:53:30;3.72;;;0.93;;
73816;SDS011;62146;53.232;-1.304;2023-02-17T04:55:57;5.70;;;0.90;;
73816;SDS011;62146;53.232;-1.304;2023-02-17T04:58:24;5.28;;;1.00;;
73816;SDS011;62146;53.232;-1.304;2023-02-17T05:00:51;5.75;;;1.10;;
73816;SDS011;62146;53.232;-1.304;2023-02-17T05:03:17;5.45;;;1.20;;
73816;SDS011;62146;53.232;-1.304;2023-02-17T05:05:44;6.13;;;1.10;;
73816;SDS011;62146;53.232;-1.304;2023-02-17T05:08:11;5.37;;;0.90;;
73816;SDS011;62146;53.232;-1.304;2023-02-17T05:10:38;5.50;;;0.90;;
73816;SDS011;62146;53.232;-1.304;2023-02-17T05:13:04;3.97;;;0.95;;
73816;SDS011;62146;53.232;-1.304;2023-02-17T05:15:31;3.05;;;0.90;;
73816;SDS011;62146;53.232;-1.304;2023-02-17T05:18:00;5.05;;;1.00;;
73816;SDS011;62146;53.232;-1.304;2023-02-17T05:20:27;2.77;;;0.90;;
73816;SDS011;62146;53.232;-1.304;2023-02-17T05:22:54;4.25;;;1.00;;
73816;SDS011;62146;53.232;-1.304;2023-02-17T05:25:20;2.75;;;0.82;;
73816;SDS011;62146;53.232;-1.304;2023-02-17T05:27:47;5.00;;;0.88;;
73816;SDS011;62146;53.232;-1.304;2023-02-17T05:30:14;3.97;;;0.90;;
73816;SDS011;62146;53.232;-1.304;2023-02-17T05:32:40;4.80;;;0.70;;
73816;SDS011;62146;53.232;-1.304;2023-02-17T05:35:07;4.30;;;0.80;;
73816;SDS011;62146;53.232;-1.304;2023-02-17T05:37:34;4.13;;;1.15;;
73816;SDS011;62146;53.232;-1.304;2023-02-17T05:40:00;5.82;;;1.05;;
73816;SDS011;62146;53.232;-1.304;2023-02-17T05:42:27;1.90;;;0.70;;
73816;SDS011;62146;53.232;-1.304;2023-02-17T05:44:54;2.13;;;0.70;;
73816;SDS011;62146;53.232;-1.304;2023-02-17T05:47:22;3.00;;;0.80;;
73816;SDS011;62146;53.232;-1.304;2023-02-17T05:49:48;4.07;;;0.77;;
73816;SDS011;62146;53.232;-1.304;2023-02-17T05:52:15;2.10;;;0.70;;
73816;SDS011;62146;53.232;-1.304;2023-02-17T05:54:43;2.95;;;0.70;;
73816;SDS011;62146;53.232;-1.304;2023-02-17T05:57:10;2.80;;;0.67;;
73816;SDS011;62146;53.232;-1.304;2023-02-17T05:59:36;3.10;;;0.70;;
73816;SDS011;62146;53.232;-1.304;2023-02-17T06:02:03;2.03;;;0.63;;
73816;SDS011;62146;53.232;-1.304;2023-02-17T06:04:29;2.53;;;1.02;;
73816;SDS011;62146;53.232;-1.304;2023-02-17T06:06:56;2.90;;;0.73;;
73816;SDS011;62146;53.232;-1.304;2023-02-17T06:09:22;1.90;;;0.60;;
73816;SDS011;62146;53.232;-1.304;2023-02-17T06:11:49;4.53;;;0.80;;
73816;SDS011;62146;53.232;-1.304;2023-02-17T06:14:16;2.90;;;0.80;;
73816;SDS011;62146;53.232;-1.304;2023-02-17T06:16:42;3.65;;;0.80;;
73816;SDS011;62146;53.232;-1.304;2023-02-17T06:19:09;3.83;;;0.80;;
73816;SDS011;62146;53.232;-1.304;2023-02-17T06:21:35;2.90;;;0.67;;
73816;SDS011;62146;53.232;-1.304;2023-02-17T06:24:02;4.13;;;0.88;;
73816;SDS011;62146;53.232;-1.304;2023-02-17T06:26:29;2.60;;;0.80;;
73816;SDS011;62146;53.232;-1.304;2023-02-17T06:28:55;3.35;;;0.75;;
73816;SDS011;62146;53.232;-1.304;2023-02-17T06:31:22;1.48;;;0.60;;
73816;SDS011;62146;53.232;-1.304;2023-02-17T06:33:48;2.00;;;0.70;;
73816;SDS011;62146;53.232;-1.304;2023-02-17T06:36:15;2.80;;;0.80;;
73816;SDS011;62146;53.232;-1.304;2023-02-17T06:38:41;3.30;;;0.68;;
73816;SDS011;62146;53.232;-1.304;2023-02-17T06:41:08;3.35;;;0.80;;
73816;SDS011;62146;53.232;-1.304;2023-02-17T06:43:34;3.33;;;0.70;;
73816;SDS011;62146;53.232;-1.304;2023-02-17T06:46:01;2.17;;;0.70;;
73816;SDS011;62146;53.232;-1.304;2023-02-17T06:48:28;3.38;;;0.90;;
73816;SDS011;62146;53.232;-1.304;2023-02-17T06:50:54;2.65;;;0.80;;
73816;SDS011;62146;53.232;-1.304;2023-02-17T06:53:21;2.67;;;0.70;;
73816;SDS011;62146;53.232;-1.304;2023-02-17T06:55:47;3.35;;;0.82;;
73816;SDS011;62146;53.232;-1.304;2023-02-17T06:58:14;2.57;;;0.90;;
73816;SDS011;62146;53.232;-1.304;2023-02-17T07:00:40;2.08;;;0.60;;
73816;SDS011;62146;53.232;-1.304;2023-02-17T07:03:07;2.42;;;0.70;;
73816;SDS011;62146;53.232;-1.304;2023-02-17T07:05:34;2.55;;;0.70;;
73816;SDS011;62146;53.232;-1.304;2023-02-17T07:08:02;2.67;;;0.70;;
73816;SDS011;62146;53.232;-1.304;2023-02-17T07:10:29;3.60;;;0.63;;
73816;SDS011;62146;53.232;-1.304;2023-02-17T07:12:56;2.45;;;0.70;;
73816;SDS011;62146;53.232;-1.304;2023-02-17T07:15:23;2.65;;;0.70;;
73816;SDS011;62146;53.232;-1.304;2023-02-17T07:17:49;2.40;;;0.82;;
73816;SDS011;62146;53.232;-1.304;2023-02-17T07:20:16;3.25;;;0.82;;
73816;SDS011;62146;53.232;-1.304;2023-02-17T07:22:43;2.07;;;0.70;;
73816;SDS011;62146;53.232;-1.304;2023-02-17T07:25:09;3.25;;;0.80;;
73816;SDS011;62146;53.232;-1.304;2023-02-17T07:27:36;3.85;;;0.98;;
73816;SDS011;62146;53.232;-1.304;2023-02-17T07:30:03;4.15;;;0.73;;
73816;SDS011;62146;53.232;-1.304;2023-02-17T07:32:31;3.08;;;1.00;;
73816;SDS011;62146;53.232;-1.304;2023-02-17T07:34:58;3.10;;;0.70;;
73816;SDS011;62146;53.232;-1.304;2023-02-17T07:37:25;3.25;;;1.00;;
73816;SDS011;62146;53.232;-1.304;2023-02-17T07:39:51;3.60;;;0.90;;
73816;SDS011;62146;53.232;-1.304;2023-02-17T07:42:18;5.15;;;1.15;;
73816;SDS011;62146;53.232;-1.304;2023-02-17T07:44:44;4.18;;;1.00;;
73816;SDS011;62146;53.232;-1.304;2023-02-17T07:47:11;4.27;;;1.30;;
73816;SDS011;62146;53.232;-1.304;2023-02-17T07:49:37;3.08;;;0.90;;
73816;SDS011;62146;53.232;-1.304;2023-02-17T07:52:04;3.33;;;1.40;;
73816;SDS011;62146;53.232;-1.304;2023-02-17T07:54:31;4.10;;;1.40;;
73816;SDS011;62146;53.232;-1.304;2023-02-17T07:56:58;4.28;;;1.17;;
73816;SDS011;62146;53.232;-1.304;2023-02-17T07:59:25;3.57;;;1.30;;
73816;SDS011;62146;53.232;-1.304;2023-02-17T08:01:51;4.68;;;1.63;;
73816;SDS011;62146;53.232;-1.304;2023-02-17T08:04:18;5.43;;;1.85;;
73816;SDS011;62146;53.232;-1.304;2023-02-17T08:06:45;6.15;;;2.15;;
73816;SDS011;62146;53.232;-1.304;2023-02-17T08:09:11;4.63;;;1.42;;
73816;SDS011;62146;53.232;-1.304;2023-02-17T08:11:56;7.10;;;1.50;;
73816;SDS011;62146;53.232;-1.304;2023-02-17T08:14:41;5.20;;;1.80;;
73816;SDS011;62146;53.232;-1.304;2023-02-17T08:17:08;3.85;;;1.45;;
73816;SDS011;62146;53.232;-1.304;2023-02-17T08:19:34;5.07;;;1.48;;
73816;SDS011;62146;53.232;-1.304;2023-02-17T08:22:13;4.85;;;1.30;;
73816;SDS011;62146;53.232;-1.304;2023-02-17T08:24:42;4.40;;;1.20;;
73816;SDS011;62146;53.232;-1.304;2023-02-17T08:27:08;3.88;;;0.98;;
73816;SDS011;62146;53.232;-1.304;2023-02-17T08:29:35;4.47;;;1.20;;
73816;SDS011;62146;53.232;-1.304;2023-02-17T08:32:01;3.63;;;1.00;;
73816;SDS011;62146;53.232;-1.304;2023-02-17T08:34:28;4.60;;;1.15;;
73816;SDS011;62146;53.232;-1.304;2023-02-17T08:36:59;2.50;;;0.80;;
73816;SDS011;62146;53.232;-1.304;2023-02-17T08:39:26;3.55;;;0.80;;
73816;SDS011;62146;53.232;-1.304;2023-02-17T08:41:53;3.08;;;0.90;;
73816;SDS011;62146;53.232;-1.304;2023-02-17T08:44:21;3.40;;;0.80;;
73816;SDS011;62146;53.232;-1.304;2023-02-17T08:46:48;3.05;;;0.80;;
73816;SDS011;62146;53.232;-1.304;2023-02-17T08:49:17;3.07;;;0.87;;
73816;SDS011;62146;53.232;-1.304;2023-02-17T08:51:46;2.15;;;0.63;;
73816;SDS011;62146;53.232;-1.304;2023-02-17T08:54:13;4.85;;;0.70;;
73816;SDS011;62146;53.232;-1.304;2023-02-17T08:56:41;4.55;;;1.17;;
73816;SDS011;62146;53.232;-1.304;2023-02-17T08:59:08;3.90;;;0.70;;
73816;SDS011;62146;53.232;-1.304;2023-02-17T09:01:36;3.87;;;0.70;;
73816;SDS011;62146;53.232;-1.304;2023-02-17T09:04:04;3.83;;;1.00;;
73816;SDS011;62146;53.232;-1.304;2023-02-17T09:06:36;3.08;;;0.88;;
73816;SDS011;62146;53.232;-1.304;2023-02-17T09:09:05;2.83;;;0.90;;
73816;SDS011;62146;53.232;-1.304;2023-02-17T09:11:33;3.13;;;0.90;;
73816;SDS011;62146;53.232;-1.304;2023-02-17T09:14:00;2.50;;;0.87;;
73816;SDS011;62146;53.232;-1.304;2023-02-17T09:16:27;4.03;;;1.10;;
73816;SDS011;62146;53.232;-1.304;2023-02-17T09:18:54;3.72;;;1.10;;
73816;SDS011;62146;53.232;-1.304;2023-02-17T09:21:21;4.13;;;1.20;;
73816;SDS011;62146;53.232;-1.304;2023-02-17T09:23:48;2.63;;;1.00;;
73816;SDS011;62146;53.232;-1.304;2023-02-17T09:26:16;4.03;;;1.10;;
73816;SDS011;62146;53.232;-1.304;2023-02-17T09:28:43;4.03;;;0.95;;
73816;SDS011;62146;53.232;-1.304;2023-02-17T09:31:15;4.45;;;1.00;;
73816;SDS011;62146;53.232;-1.304;2023-02-17T09:33:44;3.03;;;1.27;;
73816;SDS011;62146;53.232;-1.304;2023-02-17T09:36:13;2.88;;;1.00;;
73816;SDS011;62146;53.232;-1.304;2023-02-17T09:38:41;4.77;;;1.20;;
73816;SDS011;62146;53.232;-1.304;2023-02-17T09:41:19;4.05;;;1.58;;
73816;SDS011;62146;53.232;-1.304;2023-02-17T09:43:47;4.55;;;1.50;;
73816;SDS011;62146;53.232;-1.304;2023-02-17T09:49:30;3.97;;;1.40;;
73816;SDS011;62146;53.232;-1.304;2023-02-17T09:52:13;3.60;;;1.23;;
73816;SDS011;62146;53.232;-1.304;2023-02-17T09:54:52;5.18;;;1.15;;
73816;SDS011;62146;53.232;-1.304;2023-02-17T09:57:24;5.15;;;1.30;;
73816;SDS011;62146;53.232;-1.304;2023-02-17T09:59:55;5.13;;;1.35;;
73816;SDS011;62146;53.232;-1.304;2023-02-17T10:05:02;4.00;;;1.20;;
73816;SDS011;62146;53.232;-1.304;2023-02-17T10:10:26;5.15;;;1.20;;
73816;SDS011;62146;53.232;-1.304;2023-02-17T10:12:57;3.63;;;1.08;;
73816;SDS011;62146;53.232;-1.304;2023-02-17T10:15:34;5.80;;;1.33;;
73816;SDS011;62146;53.232;-1.304;2023-02-17T10:20:49;3.95;;;1.40;;
73816;SDS011;62146;53.232;-1.304;2023-02-17T10:23:27;3.60;;;1.30;;
73816;SDS011;62146;53.232;-1.304;2023-02-17T10:33:48;3.72;;;1.20;;
73816;SDS011;62146;53.232;-1.304;2023-02-17T10:39:33;3.03;;;1.20;;
73816;SDS011;62146;53.232;-1.304;2023-02-17T10:41:59;4.82;;;1.40;;
73816;SDS011;62146;53.232;-1.304;2023-02-17T10:44:26;3.27;;;1.10;;
73816;SDS011;62146;53.232;-1.304;2023-02-17T10:46:53;6.00;;;1.08;;
73816;SDS011;62146;53.232;-1.304;2023-02-17T10:49:22;3.72;;;0.95;;
73816;SDS011;62146;53.232;-1.304;2023-02-17T10:51:55;4.60;;;1.10;;
73816;SDS011;62146;53.232;-1.304;2023-02-17T10:54:29;7.20;;;0.93;;
73816;SDS011;62146;53.232;-1.304;2023-02-17T10:57:02;5.13;;;1.03;;
73816;SDS011;62146;53.232;-1.304;2023-02-17T10:59:40;4.00;;;1.00;;
73816;SDS011;62146;53.232;-1.304;2023-02-17T11:02:14;5.63;;;0.93;;
73816;SDS011;62146;53.232;-1.304;2023-02-17T11:04:45;4.97;;;0.90;;
73816;SDS011;62146;53.232;-1.304;2023-02-17T11:07:15;6.35;;;1.20;;
73816;SDS011;62146;53.232;-1.304;2023-02-17T11:09:45;4.37;;;0.93;;
73816;SDS011;62146;53.232;-1.304;2023-02-17T11:12:15;6.22;;;0.93;;
73816;SDS011;62146;53.232;-1.304;2023-02-17T11:14:51;5.65;;;1.00;;
73816;SDS011;62146;53.232;-1.304;2023-02-17T11:17:22;6.95;;;1.10;;
73816;SDS011;62146;53.232;-1.304;2023-02-17T11:20:00;6.10;;;0.98;;
73816;SDS011;62146;53.232;-1.304;2023-02-17T11:22:38;5.30;;;0.70;;
73816;SDS011;62146;53.232;-1.304;2023-02-17T11:27:58;5.72;;;0.90;;
73816;SDS011;62146;53.232;-1.304;2023-02-17T11:30:27;4.18;;;0.80;;
73816;SDS011;62146;53.232;-1.304;2023-02-17T11:32:56;4.13;;;0.90;;
73816;SDS011;62146;53.232;-1.304;2023-02-17T11:38:47;6.25;;;0.98;;
73816;SDS011;62146;53.232;-1.304;2023-02-17T11:41:01;4.43;;;0.80;;
73816;SDS011;62146;53.232;-1.304;2023-02-17T11:43:30;6.30;;;1.00;;
73816;SDS011;62146;53.232;-1.304;2023-02-17T11:51:32;6.30;;;0.80;;
73816;SDS011;62146;53.232;-1.304;2023-02-17T11:54:14;5.88;;;0.85;;
73816;SDS011;62146;53.232;-1.304;2023-02-17T11:56:46;6.40;;;1.00;;
73816;SDS011;62146;53.232;-1.304;2023-02-17T11:59:44;4.90;;;0.80;;
73816;SDS011;62146;53.232;-1.304;2023-02-17T12:05:21;4.18;;;0.80;;
73816;SDS011;62146;53.232;-1.304;2023-02-17T12:07:55;5.25;;;0.80;;
73816;SDS011;62146;53.232;-1.304;2023-02-17T12:13:38;5.68;;;0.93;;
73816;SDS011;62146;53.232;-1.304;2023-02-17T12:18:55;4.97;;;1.02;;
73816;SDS011;62146;53.232;-1.304;2023-02-17T12:21:38;6.18;;;1.10;;
73816;SDS011;62146;53.232;-1.304;2023-02-17T12:35:53;5.72;;;0.90;;
73816;SDS011;62146;53.232;-1.304;2023-02-17T12:38:26;3.22;;;0.82;;
73816;SDS011;62146;53.232;-1.304;2023-02-17T12:40:59;8.88;;;1.17;;
73816;SDS011;62146;53.232;-1.304;2023-02-17T12:46:18;6.97;;;1.05;;
73816;SDS011;62146;53.232;-1.304;2023-02-17T12:49:13;7.13;;;1.10;;
73816;SDS011;62146;53.232;-1.304;2023-02-17T12:59:40;5.85;;;1.10;;
73816;SDS011;62146;53.232;-1.304;2023-02-17T13:02:09;5.57;;;1.55;;
73816;SDS011;62146;53.232;-1.304;2023-02-17T13:04:44;3.20;;;0.80;;
73816;SDS011;62146;53.232;-1.304;2023-02-17T13:10:00;5.43;;;0.93;;
73816;SDS011;62146;53.232;-1.304;2023-02-17T13:14:55;8.45;;;1.10;;
73816;SDS011;62146;53.232;-1.304;2023-02-17T13:17:32;6.50;;;1.35;;
73816;SDS011;62146;53.232;-1.304;2023-02-17T13:20:06;4.78;;;0.85;;
73816;SDS011;62146;53.232;-1.304;2023-02-17T13:22:41;4.10;;;0.90;;
73816;SDS011;62146;53.232;-1.304;2023-02-17T13:25:12;4.45;;;0.98;;
73816;SDS011;62146;53.232;-1.304;2023-02-17T13:27:52;5.70;;;1.05;;
73816;SDS011;62146;53.232;-1.304;2023-02-17T13:33:03;4.15;;;0.70;;
73816;SDS011;62146;53.232;-1.304;2023-02-17T13:35:35;5.00;;;1.13;;
73816;SDS011;62146;53.232;-1.304;2023-02-17T13:38:02;2.72;;;0.70;;
73816;SDS011;62146;53.232;-1.304;2023-02-17T13:42:56;4.30;;;0.90;;
73816;SDS011;62146;53.232;-1.304;2023-02-17T13:45:25;5.85;;;0.90;;
73816;SDS011;62146;53.232;-1.304;2023-02-17T13:47:55;4.47;;;0.80;;
73816;SDS011;62146;53.232;-1.304;2023-02-17T13:55:49;5.78;;;1.33;;
73816;SDS011;62146;53.232;-1.304;2023-02-17T13:58:20;4.93;;;0.90;;
73816;SDS011;62146;53.232;-1.304;2023-02-17T14:01:12;3.50;;;0.80;;
73816;SDS011;62146;53.232;-1.304;2023-02-17T14:03:44;4.85;;;0.88;;
73816;SDS011;62146;53.232;-1.304;2023-02-17T14:06:47;4.68;;;0.90;;
73816;SDS011;62146;53.232;-1.304;2023-02-17T14:09:19;5.45;;;0.80;;
73816;SDS011;62146;53.232;-1.304;2023-02-17T14:11:49;2.50;;;0.75;;
73816;SDS011;62146;53.232;-1.304;2023-02-17T14:14:17;6.53;;;1.03;;
73816;SDS011;62146;53.232;-1.304;2023-02-17T14:16:54;3.65;;;0.70;;
73816;SDS011;62146;53.232;-1.304;2023-02-17T14:19:45;5.22;;;0.80;;
73816;SDS011;62146;53.232;-1.304;2023-02-17T14:22:27;7.78;;;1.00;;
73816;SDS011;62146;53.232;-1.304;2023-02-17T14:25:03;5.78;;;1.20;;
73816;SDS011;62146;53.232;-1.304;2023-02-17T14:27:43;4.80;;;0.80;;
73816;SDS011;62146;53.232;-1.304;2023-02-17T14:33:05;4.50;;;1.23;;
73816;SDS011;62146;53.232;-1.304;2023-02-17T14:35:34;4.53;;;1.00;;
73816;SDS011;62146;53.232;-1.304;2023-02-17T14:40:49;6.50;;;0.97;;
73816;SDS011;62146;53.232;-1.304;2023-02-17T14:43:18;4.10;;;0.82;;
73816;SDS011;62146;53.232;-1.304;2023-02-17T14:45:45;5.32;;;0.98;;
73816;SDS011;62146;53.232;-1.304;2023-02-17T14:48:11;6.72;;;0.82;;
73816;SDS011;62146;53.232;-1.304;2023-02-17T14:50:38;4.40;;;0.77;;
73816;SDS011;62146;53.232;-1.304;2023-02-17T14:53:24;4.00;;;0.90;;
73816;SDS011;62146;53.232;-1.304;2023-02-17T14:55:58;4.88;;;0.95;;
73816;SDS011;62146;53.232;-1.304;2023-02-17T14:58:25;5.57;;;1.45;;
73816;SDS011;62146;53.232;-1.304;2023-02-17T15:00:53;6.50;;;1.17;;
73816;SDS011;62146;53.232;-1.304;2023-02-17T15:03:19;5.25;;;1.25;;
73816;SDS011;62146;53.232;-1.304;2023-02-17T15:05:46;7.70;;;1.00;;
73816;SDS011;62146;53.232;-1.304;2023-02-17T15:08:14;6.55;;;1.10;;
73816;SDS011;62146;53.232;-1.304;2023-02-17T15:10:42;4.70;;;0.90;;
73816;SDS011;62146;53.232;-1.304;2023-02-17T15:13:12;4.32;;;0.85;;
73816;SDS011;62146;53.232;-1.304;2023-02-17T15:15:43;5.43;;;1.10;;
73816;SDS011;62146;53.232;-1.304;2023-02-17T15:18:13;5.93;;;0.80;;
73816;SDS011;62146;53.232;-1.304;2023-02-17T15:20:42;5.38;;;1.30;;
73816;SDS011;62146;53.232;-1.304;2023-02-17T15:23:11;4.60;;;0.93;;
73816;SDS011;62146;53.232;-1.304;2023-02-17T15:25:40;5.18;;;1.05;;
73816;SDS011;62146;53.232;-1.304;2023-02-17T15:28:07;6.28;;;1.00;;
73816;SDS011;62146;53.232;-1.304;2023-02-17T15:30:39;8.70;;;1.43;;
73816;SDS011;62146;53.232;-1.304;2023-02-17T15:33:10;5.30;;;1.13;;
73816;SDS011;62146;53.232;-1.304;2023-02-17T15:35:38;5.47;;;1.20;;
73816;SDS011;62146;53.232;-1.304;2023-02-17T15:38:08;5.47;;;1.00;;
73816;SDS011;62146;53.232;-1.304;2023-02-17T15:40:37;4.22;;;1.17;;
73816;SDS011;62146;53.232;-1.304;2023-02-17T15:43:04;4.73;;;1.00;;
73816;SDS011;62146;53.232;-1.304;2023-02-17T15:45:31;5.80;;;1.20;;
73816;SDS011;62146;53.232;-1.304;2023-02-17T15:48:03;7.15;;;1.40;;
73816;SDS011;62146;53.232;-1.304;2023-02-17T15:50:33;6.32;;;1.27;;
73816;SDS011;62146;53.232;-1.304;2023-02-17T15:53:00;4.82;;;0.85;;
73816;SDS011;62146;53.232;-1.304;2023-02-17T15:55:26;6.83;;;1.43;;
73816;SDS011;62146;53.232;-1.304;2023-02-17T15:57:57;7.70;;;1.27;;
73816;SDS011;62146;53.232;-1.304;2023-02-17T16:00:32;4.35;;;1.10;;
73816;SDS011;62146;53.232;-1.304;2023-02-17T16:03:00;4.65;;;1.00;;
73816;SDS011;62146;53.232;-1.304;2023-02-17T16:05:27;6.50;;;1.20;;
73816;SDS011;62146;53.232;-1.304;2023-02-17T16:07:55;4.57;;;0.70;;
73816;SDS011;62146;53.232;-1.304;2023-02-17T16:10:23;3.75;;;0.82;;
73816;SDS011;62146;53.232;-1.304;2023-02-17T16:12:54;6.50;;;1.02;;
73816;SDS011;62146;53.232;-1.304;2023-02-17T16:15:23;5.35;;;0.90;;
73816;SDS011;62146;53.232;-1.304;2023-02-17T16:17:51;7.28;;;1.17;;
73816;SDS011;62146;53.232;-1.304;2023-02-17T16:20:23;7.40;;;1.10;;
73816;SDS011;62146;53.232;-1.304;2023-02-17T16:22:51;5.32;;;1.10;;
73816;SDS011;62146;53.232;-1.304;2023-02-17T16:25:18;7.53;;;0.90;;
73816;SDS011;62146;53.232;-1.304;2023-02-17T16:27:47;3.78;;;0.95;;
73816;SDS011;62146;53.232;-1.304;2023-02-17T16:30:20;7.65;;;0.95;;
73816;SDS011;62146;53.232;-1.304;2023-02-17T16:33:00;7.47;;;1.10;;
73816;SDS011;62146;53.232;-1.304;2023-02-17T16:35:28;8.90;;;1.23;;
73816;SDS011;62146;53.232;-1.304;2023-02-17T16:37:58;4.85;;;1.00;;
73816;SDS011;62146;53.232;-1.304;2023-02-17T16:40:30;3.53;;;0.98;;
73816;SDS011;62146;53.232;-1.304;2023-02-17T16:43:00;7.20;;;1.08;;
73816;SDS011;62146;53.232;-1.304;2023-02-17T16:45:27;5.47;;;0.83;;
73816;SDS011;62146;53.232;-1.304;2023-02-17T16:47:57;6.05;;;1.23;;